createdAt,value
2018-04-19T00:02:20.331Z,49.03
2018-04-19T00:04:48.683Z,42.77
2018-04-19T00:07:16.199Z,39.87
2018-04-19T00:09:44.497Z,38.90
2018-04-19T00:12:12.059Z,37.53
2018-04-19T00:14:39.620Z,39.03
2018-04-19T00:17:07.215Z,43.57
2018-04-19T00:19:34.757Z,44.43
2018-04-19T00:22:02.327Z,39.13
2018-04-19T00:24:29.912Z,38.70
2018-04-19T00:26:58.298Z,42.17
2018-04-19T00:29:26.617Z,37.23
2018-04-19T00:31:54.152Z,39.20
2018-04-19T00:34:21.738Z,39.47
2018-04-19T00:36:49.298Z,39.13
2018-04-19T00:39:16.854Z,40.30
2018-04-19T00:41:44.412Z,41.40
2018-04-19T00:44:11.956Z,50.20
2018-04-19T00:46:39.545Z,40.83
2018-04-19T00:49:07.119Z,38.93
2018-04-19T00:51:34.643Z,43.60
2018-04-19T00:54:02.219Z,44.83
2018-04-19T00:56:29.799Z,41.83
2018-04-19T00:58:57.387Z,41.87
2018-04-19T01:01:25.684Z,44.43
2018-04-19T01:03:53.312Z,42.20
2018-04-19T01:06:21.745Z,38.67
2018-04-19T01:08:49.407Z,46.27
2018-04-19T01:11:16.970Z,37.07
2018-04-19T01:13:44.539Z,36.27
2018-04-19T01:16:12.188Z,40.87
2018-04-19T01:18:39.785Z,37.73
2018-04-19T01:21:07.316Z,41.30
2018-04-19T01:23:34.868Z,42.13
2018-04-19T01:26:02.431Z,57.00
2018-04-19T01:28:29.989Z,47.03
2018-04-19T01:30:57.547Z,45.87
2018-04-19T01:33:25.122Z,48.57
2018-04-19T01:36:04.511Z,41.40
2018-04-19T01:38:32.887Z,47.63
2018-04-19T01:41:01.198Z,39.80
2018-04-19T01:43:28.784Z,37.00
2018-04-19T01:45:56.325Z,37.40
2018-04-19T01:48:23.976Z,41.93
2018-04-19T01:50:51.523Z,44.00
2018-04-19T01:53:19.080Z,46.13
2018-04-19T01:55:46.683Z,47.90
2018-04-19T01:58:14.281Z,40.43
2018-04-19T02:00:42.581Z,45.03
2018-04-19T02:03:10.122Z,44.03
2018-04-19T02:05:38.474Z,45.80
2018-04-19T02:08:06.807Z,43.47
2018-04-19T02:10:39.281Z,49.87
2018-04-19T02:13:06.847Z,51.17
2018-04-19T02:15:34.369Z,50.57
2018-04-19T02:18:02.674Z,57.33
2018-04-19T02:20:30.224Z,45.53
2018-04-19T02:22:57.793Z,46.17
2018-04-19T02:25:25.317Z,43.10
2018-04-19T02:27:53.637Z,44.30
2018-04-19T02:30:21.189Z,37.00
2018-04-19T02:32:48.730Z,47.23
2018-04-19T02:35:16.259Z,46.60
2018-04-19T02:37:43.824Z,44.57
2018-04-19T02:40:12.171Z,39.60
2018-04-19T02:42:39.829Z,40.63
2018-04-19T02:45:07.362Z,38.53
2018-04-19T02:47:34.928Z,40.73
2018-04-19T02:50:02.482Z,46.93
2018-04-19T02:52:30.029Z,41.23
2018-04-19T02:54:57.610Z,39.53
2018-04-19T02:57:25.155Z,44.60
2018-04-19T02:59:52.785Z,47.00
2018-04-19T03:02:21.103Z,45.43
2018-04-19T03:04:48.655Z,41.37
2018-04-19T03:07:16.418Z,35.50
2018-04-19T03:09:43.969Z,40.17
2018-04-19T03:12:11.526Z,45.60
2018-04-19T03:14:39.301Z,39.90
2018-04-19T03:17:06.824Z,43.17
2018-04-19T03:19:34.346Z,43.03
2018-04-19T03:22:01.890Z,47.07
2018-04-19T03:24:29.406Z,36.37
2018-04-19T03:26:57.723Z,38.47
2018-04-19T03:29:25.307Z,39.43
2018-04-19T03:31:52.966Z,36.80
2018-04-19T03:34:20.620Z,44.40
2018-04-19T03:36:48.170Z,37.60
2018-04-19T03:39:15.748Z,43.90
2018-04-19T03:41:44.964Z,39.30
2018-04-19T03:44:13.276Z,40.70
2018-04-19T03:46:40.848Z,34.70
2018-04-19T03:49:08.416Z,38.53
2018-04-19T03:51:35.997Z,47.93
2018-04-19T03:54:03.554Z,38.33
2018-04-19T03:56:31.138Z,39.23
2018-04-19T03:58:59.490Z,38.73
2018-04-19T04:01:27.038Z,43.83
2018-04-19T04:03:54.674Z,37.97
2018-04-19T04:06:22.282Z,39.20
2018-04-19T04:08:50.626Z,37.93
2018-04-19T04:11:18.217Z,41.90
2018-04-19T04:13:45.870Z,37.40
2018-04-19T04:16:25.454Z,32.70
2018-04-19T04:19:16.189Z,33.20
2018-04-19T04:21:55.626Z,39.20
2018-04-19T04:24:23.215Z,39.40
2018-04-19T04:26:50.887Z,37.63
2018-04-19T04:29:18.550Z,40.50
2018-04-19T04:31:46.172Z,36.63
2018-04-19T04:34:13.741Z,34.80
2018-04-19T04:36:41.304Z,43.23
2018-04-19T04:39:08.842Z,46.23
2018-04-19T04:41:36.367Z,54.90
2018-04-19T04:44:04.690Z,47.17
2018-04-19T04:46:32.228Z,58.13
2018-04-19T04:48:59.778Z,43.53
2018-04-19T04:51:27.326Z,50.03
2018-04-19T04:53:55.651Z,52.43
2018-04-19T04:56:23.260Z,49.63
2018-04-19T04:58:51.571Z,49.13
2018-04-19T05:01:19.123Z,54.90
2018-04-19T05:03:46.689Z,54.20
2018-04-19T05:06:14.240Z,47.87
2018-04-19T05:08:41.780Z,56.50
2018-04-19T05:11:10.092Z,44.23
2018-04-19T05:13:37.646Z,51.80
2018-04-19T05:16:05.214Z,60.17
2018-04-19T05:18:32.736Z,56.57
2018-04-19T05:21:01.052Z,61.50
2018-04-19T05:23:28.599Z,54.00
2018-04-19T05:25:56.142Z,47.63
2018-04-19T05:28:23.696Z,55.80
2018-04-19T05:30:51.265Z,45.20
2018-04-19T05:33:18.824Z,51.30
2018-04-19T05:35:46.360Z,48.63
2018-04-19T05:38:14.705Z,49.10
2018-04-19T05:40:42.321Z,46.77
2018-04-19T05:43:09.876Z,40.00
2018-04-19T05:45:37.656Z,50.10
2018-04-19T05:48:05.210Z,48.17
2018-04-19T05:50:32.760Z,46.83
2018-04-19T05:53:00.326Z,42.20
2018-04-19T05:55:27.894Z,42.27
2018-04-19T05:57:55.447Z,42.00
2018-04-19T06:00:23.112Z,50.07
2018-04-19T06:02:50.663Z,44.43
2018-04-19T06:05:18.264Z,46.97
2018-04-19T06:07:45.798Z,50.77
2018-04-19T06:10:13.491Z,44.43
2018-04-19T06:12:41.019Z,46.23
2018-04-19T06:15:08.582Z,50.07
2018-04-19T06:17:36.172Z,45.03
2018-04-19T06:20:03.754Z,40.47
2018-04-19T06:22:32.054Z,42.73
2018-04-19T06:24:59.725Z,44.13
2018-04-19T06:27:27.200Z,51.00
2018-04-19T06:29:54.966Z,45.53
2018-04-19T06:32:22.506Z,46.63
2018-04-19T06:34:50.031Z,36.63
2018-04-19T06:37:18.383Z,41.67
2018-04-19T06:39:46.755Z,43.93
2018-04-19T06:42:14.277Z,39.07
2018-04-19T06:44:41.931Z,31.80
2018-04-19T06:47:09.490Z,38.37
2018-04-19T06:49:37.034Z,35.93
2018-04-19T06:52:05.336Z,46.37
2018-04-19T06:54:32.911Z,34.03
2018-04-19T06:57:00.483Z,33.17
2018-04-19T06:59:28.013Z,37.37
2018-04-19T07:01:55.676Z,36.73
2018-04-19T07:04:23.197Z,33.53
2018-04-19T07:06:51.485Z,39.47
2018-04-19T07:09:19.786Z,32.33
2018-04-19T07:11:47.336Z,38.90
2018-04-19T07:14:14.920Z,32.10
2018-04-19T07:16:42.481Z,34.63
2018-04-19T07:19:10.025Z,31.37
2018-04-19T07:21:37.590Z,29.90
2018-04-19T07:24:05.106Z,37.57
2018-04-19T07:26:33.398Z,34.50
2018-04-19T07:29:00.989Z,35.40
2018-04-19T07:31:28.549Z,35.20
2018-04-19T07:33:56.097Z,28.20
2018-04-19T07:36:23.666Z,34.03
2018-04-19T07:38:51.247Z,28.00
2018-04-19T07:41:18.798Z,28.50
2018-04-19T07:43:46.347Z,37.53
2018-04-19T07:46:13.894Z,37.77
2018-04-19T07:48:41.446Z,32.43
2018-04-19T07:51:08.981Z,30.43
2018-04-19T07:53:37.302Z,28.30
2018-04-19T07:56:04.859Z,32.67
2018-04-19T07:58:32.436Z,31.23
2018-04-19T08:00:59.981Z,28.23
2018-04-19T08:03:27.550Z,33.73
2018-04-19T08:05:55.124Z,32.30
2018-04-19T08:08:22.747Z,34.37
2018-04-19T08:10:50.303Z,35.00
2018-04-19T08:13:17.888Z,35.30
2018-04-19T08:15:45.555Z,37.80
2018-04-19T08:18:13.178Z,34.37
2018-04-19T08:20:40.733Z,35.80
2018-04-19T08:23:08.308Z,32.53
2018-04-19T08:25:35.879Z,37.87
2018-04-19T08:28:03.452Z,35.93
2018-04-19T08:30:31.053Z,30.57
2018-04-19T08:32:59.374Z,33.20
2018-04-19T08:35:26.970Z,31.93
2018-04-19T08:37:54.616Z,35.07
2018-04-19T08:40:22.173Z,33.23
2018-04-19T08:42:49.727Z,35.50
2018-04-19T08:45:17.278Z,37.77
2018-04-19T08:47:44.833Z,36.57
2018-04-19T08:50:12.429Z,29.40
2018-04-19T08:52:39.975Z,31.87
2018-04-19T08:55:07.528Z,34.93
2018-04-19T08:57:35.158Z,26.43
2018-04-19T09:00:02.694Z,30.33
2018-04-19T09:02:30.990Z,32.93
2018-04-19T09:04:58.655Z,36.00
2018-04-19T09:07:26.237Z,35.33
2018-04-19T09:09:53.818Z,32.13
2018-04-19T09:12:21.387Z,38.57
2018-04-19T09:14:48.954Z,37.43
2018-04-19T09:17:17.305Z,22.20
2018-04-19T09:19:44.863Z,18.80
2018-04-19T09:22:12.420Z,17.40
2018-04-19T09:24:39.969Z,12.97
2018-04-19T09:27:07.485Z,11.73
2018-04-19T09:29:35.786Z,12.80
2018-04-19T09:32:03.372Z,11.67
2018-04-19T09:34:30.897Z,10.80
2018-04-19T09:36:58.419Z,10.40
2018-04-19T09:39:25.967Z,11.70
2018-04-19T09:41:54.318Z,10.03
2018-04-19T09:44:21.875Z,11.20
2018-04-19T09:46:49.409Z,11.50
2018-04-19T09:49:16.973Z,10.63
2018-04-19T09:51:44.511Z,10.90
2018-04-19T09:54:12.891Z,9.87
2018-04-19T09:56:40.514Z,10.53
2018-04-19T09:59:11.714Z,11.97
2018-04-19T10:01:44.884Z,11.10
2018-04-19T10:04:14.264Z,13.17
2018-04-19T10:06:41.741Z,14.83
2018-04-19T10:09:10.030Z,12.37
2018-04-19T10:11:37.647Z,12.07
2018-04-19T10:14:05.258Z,10.67
2018-04-19T10:16:32.806Z,11.50
2018-04-19T10:19:00.359Z,14.10
2018-04-19T10:21:28.129Z,14.47
2018-04-19T10:23:55.623Z,13.37
2018-04-19T10:26:23.152Z,13.57
2018-04-19T10:28:50.707Z,15.23
2018-04-19T10:31:18.290Z,15.37
2018-04-19T10:33:45.976Z,16.77
2018-04-19T10:36:13.710Z,16.73
2018-04-19T10:38:41.270Z,16.20
2018-04-19T10:41:08.810Z,15.50
2018-04-19T10:43:36.393Z,14.70
2018-04-19T10:46:03.969Z,15.27
2018-04-19T10:48:31.518Z,14.10
2018-04-19T10:50:59.169Z,11.70
2018-04-19T10:53:26.732Z,12.83
2018-04-19T10:55:54.282Z,13.83
2018-04-19T10:58:21.826Z,19.40
2018-04-19T11:00:49.375Z,18.30
2018-04-19T11:03:17.670Z,13.40
2018-04-19T11:05:45.247Z,12.17
2018-04-19T11:08:12.816Z,12.80
2018-04-19T11:10:40.351Z,13.33
2018-04-19T11:13:07.939Z,14.30
2018-04-19T11:15:35.466Z,15.00
2018-04-19T11:18:03.138Z,20.93
2018-04-19T11:20:30.700Z,19.30
2018-04-19T11:22:58.283Z,22.50
2018-04-19T11:25:25.830Z,28.90
2018-04-19T11:27:53.377Z,25.17
2018-04-19T11:30:21.063Z,25.10
2018-04-19T11:32:48.597Z,23.87
2018-04-19T11:35:16.256Z,32.23
2018-04-19T11:37:43.925Z,25.90
2018-04-19T11:40:11.483Z,26.70
2018-04-19T11:42:39.039Z,27.63
2018-04-19T11:45:06.626Z,26.17
2018-04-19T11:47:34.183Z,23.73
2018-04-19T11:50:01.756Z,31.13
2018-04-19T11:52:29.322Z,32.87
2018-04-19T11:54:56.888Z,25.30
2018-04-19T11:57:25.182Z,29.17
2018-04-19T11:59:53.526Z,27.13
2018-04-19T12:02:21.053Z,28.83
2018-04-19T12:04:48.575Z,31.00
2018-04-19T12:07:16.915Z,28.47
2018-04-19T12:09:44.440Z,25.63
2018-04-19T12:12:11.981Z,22.50
2018-04-19T12:14:39.502Z,21.07
2018-04-19T12:17:07.811Z,20.57
2018-04-19T12:19:35.353Z,21.07
2018-04-19T12:22:03.670Z,13.70
2018-04-19T12:24:31.255Z,21.60
2018-04-19T12:26:58.806Z,23.97
2018-04-19T12:29:26.479Z,26.53
2018-04-19T12:31:54.027Z,27.43
2018-04-19T12:34:21.576Z,25.10
2018-04-19T12:36:49.114Z,23.87
2018-04-19T12:39:16.670Z,18.57
2018-04-19T12:41:44.286Z,20.77
2018-04-19T12:44:12.013Z,17.63
2018-04-19T12:46:39.672Z,16.67
2018-04-19T12:49:07.224Z,17.33
2018-04-19T12:51:34.804Z,21.33
2018-04-19T12:54:02.386Z,19.70
2018-04-19T12:56:29.920Z,21.13
2018-04-19T12:58:57.478Z,18.73
2018-04-19T13:01:25.051Z,20.90
2018-04-19T13:03:52.615Z,14.60
2018-04-19T13:06:20.157Z,9.30
2018-04-19T13:08:47.697Z,9.97
2018-04-19T13:11:15.266Z,11.73
2018-04-19T13:13:42.834Z,9.97
2018-04-19T13:16:10.409Z,15.30
2018-04-19T13:18:37.991Z,14.10
2018-04-19T13:21:05.710Z,9.00
2018-04-19T13:23:33.262Z,21.57
2018-04-19T13:26:00.912Z,23.67
2018-04-19T13:28:28.433Z,22.93
2018-04-19T13:30:55.950Z,17.40
2018-04-19T13:33:23.512Z,11.23
2018-04-19T13:35:51.103Z,27.57
2018-04-19T13:38:18.651Z,17.20
2018-04-19T13:40:46.178Z,13.20
2018-04-19T13:43:13.755Z,14.37
2018-04-19T13:45:41.324Z,11.87
2018-04-19T13:48:08.850Z,12.33
2018-04-19T13:50:36.421Z,15.37
2018-04-19T13:53:04.081Z,19.33
2018-04-19T13:55:31.631Z,11.60
2018-04-19T13:57:59.158Z,9.57
2018-04-19T14:00:27.487Z,17.60
2018-04-19T14:02:55.032Z,10.83
2018-04-19T14:05:22.597Z,10.97
2018-04-19T14:07:50.152Z,11.57
2018-04-19T14:10:17.713Z,12.53
2018-04-19T14:12:45.247Z,16.70
2018-04-19T14:15:12.833Z,10.27
2018-04-19T14:17:40.395Z,10.97
2018-04-19T14:20:07.933Z,9.37
2018-04-19T14:22:35.514Z,10.13
2018-04-19T14:25:03.092Z,9.53
2018-04-19T14:27:30.655Z,11.60
2018-04-19T14:29:58.277Z,11.40
2018-04-19T14:32:25.843Z,11.27
2018-04-19T14:34:53.511Z,12.07
2018-04-19T14:37:21.055Z,7.50
2018-04-19T14:39:48.590Z,11.70
2018-04-19T14:42:16.162Z,11.30
2018-04-19T14:44:43.761Z,14.70
2018-04-19T14:47:11.291Z,8.47
2018-04-19T14:49:38.871Z,10.07
2018-04-19T14:52:06.420Z,11.40
2018-04-19T14:54:33.984Z,9.47
2018-04-19T14:57:01.577Z,11.33
2018-04-19T14:59:29.131Z,7.20
2018-04-19T15:01:56.701Z,7.40
2018-04-19T15:04:24.326Z,11.50
2018-04-19T15:06:51.918Z,12.03
2018-04-19T15:09:19.502Z,13.30
2018-04-19T15:11:47.035Z,11.93
2018-04-19T15:14:14.569Z,10.87
2018-04-19T15:16:42.226Z,10.20
2018-04-19T15:19:09.827Z,17.53
2018-04-19T15:21:37.447Z,11.60
2018-04-19T15:24:04.992Z,10.50
2018-04-19T15:26:32.536Z,13.07
2018-04-19T15:29:00.840Z,10.93
2018-04-19T15:31:28.393Z,15.17
2018-04-19T15:33:55.982Z,9.60
2018-04-19T15:36:23.525Z,12.60
2018-04-19T15:38:51.168Z,13.83
2018-04-19T15:41:18.894Z,9.73
2018-04-19T15:43:46.398Z,12.57
2018-04-19T15:46:13.957Z,10.27
2018-04-19T15:48:41.649Z,11.57
2018-04-19T15:51:09.202Z,13.67
2018-04-19T15:53:36.766Z,10.17
2018-04-19T15:56:04.346Z,10.10
2018-04-19T15:58:31.893Z,9.80
2018-04-19T16:01:00.178Z,8.50
2018-04-19T16:03:27.739Z,11.20
2018-04-19T16:05:55.389Z,13.27
2018-04-19T16:08:22.917Z,10.67
2018-04-19T16:10:50.515Z,16.90
2018-04-19T16:13:18.037Z,7.80
2018-04-19T16:15:45.583Z,11.60
2018-04-19T16:18:13.117Z,8.10
2018-04-19T16:20:41.434Z,15.13
2018-04-19T16:23:09.015Z,9.23
2018-04-19T16:25:36.594Z,6.87
2018-04-19T16:28:04.177Z,13.03
2018-04-19T16:30:32.493Z,6.80
2018-04-19T16:33:00.047Z,11.43
2018-04-19T16:35:27.557Z,8.73
2018-04-19T16:37:55.371Z,9.13
2018-04-19T16:40:22.955Z,8.60
2018-04-19T16:42:50.562Z,11.23
2018-04-19T16:45:18.145Z,6.77
2018-04-19T16:47:45.696Z,6.83
2018-04-19T16:50:13.317Z,8.70
2018-04-19T16:52:40.837Z,10.77
2018-04-19T16:55:08.394Z,15.90
2018-04-19T16:57:35.953Z,8.07
2018-04-19T17:00:03.596Z,13.73
2018-04-19T17:02:31.143Z,18.10
2018-04-19T17:04:58.665Z,28.07
2018-04-19T17:07:26.306Z,7.83
2018-04-19T17:09:53.839Z,8.33
2018-04-19T17:12:21.362Z,6.27
2018-04-19T17:14:49.699Z,10.77
2018-04-19T17:17:17.301Z,6.60
2018-04-19T17:19:45.626Z,8.03
2018-04-19T17:22:13.162Z,8.83
2018-04-19T17:24:40.727Z,9.93
2018-04-19T17:27:08.240Z,7.70
2018-04-19T17:29:36.523Z,14.90
2018-04-19T17:32:04.126Z,11.53
2018-04-19T17:34:31.769Z,7.13
2018-04-19T17:37:00.042Z,5.90
2018-04-19T17:39:28.466Z,10.23
2018-04-19T17:41:56.127Z,7.87
2018-04-19T17:44:23.695Z,7.23
2018-04-19T17:46:51.246Z,7.67
2018-04-19T17:49:18.822Z,11.47
2018-04-19T17:51:46.353Z,9.07
2018-04-19T17:54:13.880Z,12.80
2018-04-19T17:56:41.456Z,6.33
2018-04-19T17:59:09.012Z,10.63
2018-04-19T18:01:36.573Z,8.40
2018-04-19T18:04:04.172Z,13.20
2018-04-19T18:06:31.685Z,6.90
2018-04-19T18:08:59.253Z,6.27
2018-04-19T18:11:26.834Z,13.13
2018-04-19T18:13:54.399Z,8.57
2018-04-19T18:16:21.923Z,6.10
2018-04-19T18:18:49.464Z,5.87
2018-04-19T18:21:17.778Z,5.50
2018-04-19T18:23:45.328Z,8.30
2018-04-19T18:26:12.912Z,10.33
2018-04-19T18:28:40.444Z,10.40
2018-04-19T18:31:07.953Z,7.37
2018-04-19T18:33:35.483Z,10.97
2018-04-19T18:36:02.998Z,6.80
2018-04-19T18:38:30.534Z,8.50
2018-04-19T18:40:58.095Z,7.00
2018-04-19T18:43:26.435Z,8.47
2018-04-19T18:45:53.998Z,10.47
2018-04-19T18:48:21.550Z,8.10
2018-04-19T18:50:49.128Z,8.60
2018-04-19T18:53:16.704Z,8.10
2018-04-19T18:55:44.221Z,10.40
2018-04-19T18:58:11.746Z,5.47
2018-04-19T19:00:40.058Z,15.13
2018-04-19T19:03:07.622Z,9.30
2018-04-19T19:05:35.180Z,7.73
2018-04-19T19:08:02.734Z,8.00
2018-04-19T19:10:30.280Z,8.90
2018-04-19T19:12:57.805Z,14.83
2018-04-19T19:18:48.425Z,12.43
2018-04-19T19:21:16.739Z,12.97
2018-04-19T19:23:44.334Z,13.30
2018-04-19T19:26:11.933Z,8.07
2018-04-19T19:28:39.513Z,8.53
2018-04-19T19:31:07.066Z,8.57
2018-04-19T19:33:34.592Z,8.80
2018-04-19T19:36:02.174Z,9.53
2018-04-19T19:38:29.764Z,7.63
2018-04-19T19:40:57.294Z,10.33
2018-04-19T19:43:25.663Z,8.90
2018-04-19T19:45:54.007Z,8.93
2018-04-19T19:48:21.579Z,15.63
2018-04-19T19:50:49.137Z,8.23
2018-04-19T19:53:16.795Z,8.80
2018-04-19T19:55:44.442Z,11.47
2018-04-19T19:58:11.995Z,8.43
2018-04-19T20:00:39.666Z,8.80
2018-04-19T20:03:07.203Z,10.90
2018-04-19T20:05:34.733Z,12.03
2018-04-19T20:08:02.306Z,10.33
2018-04-19T20:10:29.817Z,9.57
2018-04-19T20:12:57.424Z,12.57
2018-04-19T20:15:24.982Z,15.20
2018-04-19T20:17:52.522Z,14.40
2018-04-19T20:20:20.834Z,11.80
2018-04-19T20:22:48.477Z,12.00
2018-04-19T20:25:16.047Z,12.00
2018-04-19T20:27:43.575Z,13.93
2018-04-19T20:30:11.899Z,16.30
2018-04-19T20:32:39.429Z,13.30
2018-04-19T20:35:06.976Z,11.70
2018-04-19T20:37:34.601Z,11.93
2018-04-19T20:40:02.141Z,13.53
2018-04-19T20:42:29.707Z,12.07
2018-04-19T20:44:57.245Z,18.23
2018-04-19T20:47:25.003Z,11.07
2018-04-19T20:49:52.568Z,10.80
2018-04-19T20:52:20.093Z,14.77
2018-04-19T20:54:48.455Z,13.10
2018-04-19T20:57:16.787Z,13.70
2018-04-19T20:59:44.315Z,12.90
2018-04-19T21:02:11.898Z,13.50
2018-04-19T21:04:39.452Z,15.70
2018-04-19T21:07:07.023Z,14.83
2018-04-19T21:09:34.591Z,12.13
2018-04-19T21:12:02.175Z,13.77
2018-04-19T21:14:29.724Z,21.70
2018-04-19T21:16:57.279Z,13.40
2018-04-19T21:19:24.801Z,16.07
2018-04-19T21:21:52.382Z,14.67
2018-04-19T21:24:19.950Z,19.80
2018-04-19T21:26:47.512Z,13.97
2018-04-19T21:29:15.050Z,15.80
2018-04-19T21:31:42.603Z,19.13
2018-04-19T21:34:10.155Z,15.30
2018-04-19T21:36:37.711Z,16.93
2018-04-19T21:39:05.998Z,15.47
2018-04-19T21:41:33.570Z,17.90
2018-04-19T21:44:01.102Z,16.30
2018-04-19T21:46:28.702Z,15.83
2018-04-19T21:48:56.278Z,19.50
2018-04-19T21:51:23.903Z,17.17
2018-04-19T21:53:51.474Z,18.03
2018-04-19T21:56:19.062Z,17.67
2018-04-19T21:58:46.808Z,16.67
2018-04-19T22:01:14.460Z,18.83
2018-04-19T22:03:41.988Z,16.67
2018-04-19T22:06:09.545Z,19.73
2018-04-19T22:08:37.095Z,18.33
2018-04-19T22:11:04.644Z,16.50
2018-04-19T22:13:32.994Z,16.77
2018-04-19T22:16:01.292Z,17.60
2018-04-19T22:18:29.612Z,17.30
2018-04-19T22:20:57.134Z,17.33
2018-04-19T22:23:25.456Z,24.73
2018-04-19T22:25:53.024Z,25.07
2018-04-19T22:28:20.550Z,18.80
2018-04-19T22:30:48.098Z,17.43
2018-04-19T22:33:15.679Z,16.37
2018-04-19T22:35:43.241Z,18.00
2018-04-19T22:38:10.818Z,19.43
2018-04-19T22:40:38.343Z,21.73
2018-04-19T22:43:05.933Z,16.90
2018-04-19T22:45:33.569Z,18.80
2018-04-19T22:48:01.126Z,17.77
2018-04-19T22:50:28.685Z,16.23
2018-04-19T22:52:56.257Z,19.67
2018-04-19T22:55:23.849Z,19.17
2018-04-19T22:57:51.388Z,16.37
2018-04-19T23:00:19.854Z,19.73
2018-04-19T23:02:47.507Z,23.23
2018-04-19T23:05:15.042Z,19.03
2018-04-19T23:07:43.335Z,19.60
2018-04-19T23:10:10.922Z,27.27
2018-04-19T23:12:38.490Z,19.90
2018-04-19T23:15:06.098Z,28.03
2018-04-19T23:17:34.481Z,25.83
2018-04-19T23:20:02.777Z,23.43
2018-04-19T23:22:34.393Z,26.27
2018-04-19T23:25:01.990Z,21.40
2018-04-19T23:27:29.626Z,20.97
2018-04-19T23:29:57.985Z,21.03
2018-04-19T23:32:25.582Z,23.47
2018-04-19T23:34:53.166Z,20.27
2018-04-19T23:37:20.720Z,22.80
2018-04-19T23:39:48.314Z,22.00
2018-04-19T23:42:15.879Z,21.83
2018-04-19T23:44:43.459Z,26.23
2018-04-19T23:47:11.803Z,21.33
2018-04-19T23:49:39.421Z,21.47
2018-04-19T23:52:06.985Z,23.23
2018-04-19T23:54:34.582Z,22.57
2018-04-19T23:57:02.150Z,29.77
2018-04-19T23:59:29.718Z,23.67
